sensor_id;sensor_type;location;lat;lon;timestamp;temperature;humidity
14749;DHT22;7466;53.574;9.976;2023-04-01T00:01:36;10.10;99.90
14749;DHT22;7466;53.574;9.976;2023-04-01T00:04:04;10.10;99.90
14749;DHT22;7466;53.574;9.976;2023-04-01T00:06:31;10.10;99.90
14749;DHT22;7466;53.574;9.976;2023-04-01T00:08:58;10.10;99.90
14749;DHT22;7466;53.574;9.976;2023-04-01T00:11:25;10.10;99.90
14749;DHT22;7466;53.574;9.976;2023-04-01T00:13:53;10.10;99.90
14749;DHT22;7466;53.574;9.976;2023-04-01T00:16:19;10.10;99.90
14749;DHT22;7466;53.574;9.976;2023-04-01T00:18:46;10.10;99.90
14749;DHT22;7466;53.574;9.976;2023-04-01T00:21:15;10.10;99.90
14749;DHT22;7466;53.574;9.976;2023-04-01T00:23:42;10.10;99.90
14749;DHT22;7466;53.574;9.976;2023-04-01T00:26:09;10.10;99.90
14749;DHT22;7466;53.574;9.976;2023-04-01T00:28:37;10.10;99.90
14749;DHT22;7466;53.574;9.976;2023-04-01T00:31:05;10.10;99.90
14749;DHT22;7466;53.574;9.976;2023-04-01T00:33:32;10.00;99.90
14749;DHT22;7466;53.574;9.976;2023-04-01T00:36:06;10.00;99.90
14749;DHT22;7466;53.574;9.976;2023-04-01T00:38:35;10.00;99.90
14749;DHT22;7466;53.574;9.976;2023-04-01T00:41:02;10.00;99.90
14749;DHT22;7466;53.574;9.976;2023-04-01T00:43:29;10.00;99.90
14749;DHT22;7466;53.574;9.976;2023-04-01T00:45:56;10.00;99.90
14749;DHT22;7466;53.574;9.976;2023-04-01T00:48:24;9.90;99.90
14749;DHT22;7466;53.574;9.976;2023-04-01T00:50:54;10.00;99.90
14749;DHT22;7466;53.574;9.976;2023-04-01T00:53:21;9.90;99.90
14749;DHT22;7466;53.574;9.976;2023-04-01T00:55:54;9.90;99.90
14749;DHT22;7466;53.574;9.976;2023-04-01T00:58:24;9.90;99.90
14749;DHT22;7466;53.574;9.976;2023-04-01T01:00:52;9.90;99.90
14749;DHT22;7466;53.574;9.976;2023-04-01T01:03:20;9.90;99.90
14749;DHT22;7466;53.574;9.976;2023-04-01T01:09:06;9.90;99.90
14749;DHT22;7466;53.574;9.976;2023-04-01T01:11:39;9.90;99.90
14749;DHT22;7466;53.574;9.976;2023-04-01T01:14:17;9.90;99.90
14749;DHT22;7466;53.574;9.976;2023-04-01T01:16:50;9.90;99.90
14749;DHT22;7466;53.574;9.976;2023-04-01T01:19:44;9.90;99.90
14749;DHT22;7466;53.574;9.976;2023-04-01T01:22:37;9.90;99.90
14749;DHT22;7466;53.574;9.976;2023-04-01T01:25:17;9.90;99.90
14749;DHT22;7466;53.574;9.976;2023-04-01T01:27:56;9.90;99.90
14749;DHT22;7466;53.574;9.976;2023-04-01T01:30:46;9.80;99.90
14749;DHT22;7466;53.574;9.976;2023-04-01T01:33:35;9.90;99.90
14749;DHT22;7466;53.574;9.976;2023-04-01T01:36:11;9.90;99.90
14749;DHT22;7466;53.574;9.976;2023-04-01T01:38:39;9.90;99.90
14749;DHT22;7466;53.574;9.976;2023-04-01T01:41:07;9.90;99.90
14749;DHT22;7466;53.574;9.976;2023-04-01T01:43:37;9.80;99.90
14749;DHT22;7466;53.574;9.976;2023-04-01T01:46:08;9.80;99.90
14749;DHT22;7466;53.574;9.976;2023-04-01T01:48:36;9.80;99.90
14749;DHT22;7466;53.574;9.976;2023-04-01T01:51:06;9.80;99.90
14749;DHT22;7466;53.574;9.976;2023-04-01T01:53:33;9.80;99.90
14749;DHT22;7466;53.574;9.976;2023-04-01T01:56:00;9.80;99.90
14749;DHT22;7466;53.574;9.976;2023-04-01T01:58:30;9.80;99.90
14749;DHT22;7466;53.574;9.976;2023-04-01T02:00:59;9.80;99.90
14749;DHT22;7466;53.574;9.976;2023-04-01T02:03:29;9.80;99.90
14749;DHT22;7466;53.574;9.976;2023-04-01T02:05:59;9.80;99.90
14749;DHT22;7466;53.574;9.976;2023-04-01T02:08:34;9.70;99.90
14749;DHT22;7466;53.574;9.976;2023-04-01T02:11:03;9.80;99.90
14749;DHT22;7466;53.574;9.976;2023-04-01T02:13:35;9.70;99.90
14749;DHT22;7466;53.574;9.976;2023-04-01T02:16:08;9.70;99.90
14749;DHT22;7466;53.574;9.976;2023-04-01T02:18:38;9.70;99.90
14749;DHT22;7466;53.574;9.976;2023-04-01T02:21:07;9.70;99.90
14749;DHT22;7466;53.574;9.976;2023-04-01T02:23:37;9.70;99.90
14749;DHT22;7466;53.574;9.976;2023-04-01T02:26:05;9.70;99.90
14749;DHT22;7466;53.574;9.976;2023-04-01T02:28:33;9.70;99.90
14749;DHT22;7466;53.574;9.976;2023-04-01T02:31:01;9.70;99.90
14749;DHT22;7466;53.574;9.976;2023-04-01T02:33:29;9.70;99.90
14749;DHT22;7466;53.574;9.976;2023-04-01T02:35:57;9.70;99.90
14749;DHT22;7466;53.574;9.976;2023-04-01T02:38:24;9.70;99.90
14749;DHT22;7466;53.574;9.976;2023-04-01T02:40:57;9.70;99.90
14749;DHT22;7466;53.574;9.976;2023-04-01T02:43:24;9.70;99.90
14749;DHT22;7466;53.574;9.976;2023-04-01T02:45:51;9.70;99.90
14749;DHT22;7466;53.574;9.976;2023-04-01T02:48:18;9.70;99.90
14749;DHT22;7466;53.574;9.976;2023-04-01T02:50:45;9.70;99.90
14749;DHT22;7466;53.574;9.976;2023-04-01T02:53:12;9.70;99.90
14749;DHT22;7466;53.574;9.976;2023-04-01T02:55:39;9.70;99.90
14749;DHT22;7466;53.574;9.976;2023-04-01T02:58:07;9.70;99.90
14749;DHT22;7466;53.574;9.976;2023-04-01T03:00:34;9.70;99.90
14749;DHT22;7466;53.574;9.976;2023-04-01T03:03:01;9.70;99.90
14749;DHT22;7466;53.574;9.976;2023-04-01T03:05:28;9.70;99.90
14749;DHT22;7466;53.574;9.976;2023-04-01T03:07:54;9.70;99.90
14749;DHT22;7466;53.574;9.976;2023-04-01T03:10:21;9.60;99.90
14749;DHT22;7466;53.574;9.976;2023-04-01T03:12:48;9.70;99.90
14749;DHT22;7466;53.574;9.976;2023-04-01T03:15:16;9.70;99.90
14749;DHT22;7466;53.574;9.976;2023-04-01T03:17:43;9.70;99.90
14749;DHT22;7466;53.574;9.976;2023-04-01T03:20:11;9.70;99.90
14749;DHT22;7466;53.574;9.976;2023-04-01T03:22:38;9.70;99.90
14749;DHT22;7466;53.574;9.976;2023-04-01T03:25:06;9.70;99.90
14749;DHT22;7466;53.574;9.976;2023-04-01T03:27:34;9.70;99.90
14749;DHT22;7466;53.574;9.976;2023-04-01T03:30:01;9.70;99.90
14749;DHT22;7466;53.574;9.976;2023-04-01T03:32:31;9.70;99.90
14749;DHT22;7466;53.574;9.976;2023-04-01T03:34:58;9.70;99.90
14749;DHT22;7466;53.574;9.976;2023-04-01T03:37:24;9.60;99.90
14749;DHT22;7466;53.574;9.976;2023-04-01T03:39:51;9.60;99.90
14749;DHT22;7466;53.574;9.976;2023-04-01T03:42:18;9.70;99.90
14749;DHT22;7466;53.574;9.976;2023-04-01T03:44:45;9.60;99.90
14749;DHT22;7466;53.574;9.976;2023-04-01T03:47:12;9.60;99.90
14749;DHT22;7466;53.574;9.976;2023-04-01T03:49:40;9.70;99.90
14749;DHT22;7466;53.574;9.976;2023-04-01T03:52:09;9.70;99.90
14749;DHT22;7466;53.574;9.976;2023-04-01T03:54:36;9.70;99.90
14749;DHT22;7466;53.574;9.976;2023-04-01T03:57:03;9.60;99.90
14749;DHT22;7466;53.574;9.976;2023-04-01T03:59:30;9.60;99.90
14749;DHT22;7466;53.574;9.976;2023-04-01T04:01:57;9.70;99.90
14749;DHT22;7466;53.574;9.976;2023-04-01T04:04:24;9.70;99.90
14749;DHT22;7466;53.574;9.976;2023-04-01T04:06:52;9.60;99.90
14749;DHT22;7466;53.574;9.976;2023-04-01T04:09:19;9.60;99.90
14749;DHT22;7466;53.574;9.976;2023-04-01T04:11:46;9.60;99.90
14749;DHT22;7466;53.574;9.976;2023-04-01T04:14:13;9.60;99.90
14749;DHT22;7466;53.574;9.976;2023-04-01T04:16:40;9.60;99.90
14749;DHT22;7466;53.574;9.976;2023-04-01T04:19:06;9.60;99.90
14749;DHT22;7466;53.574;9.976;2023-04-01T04:21:33;9.60;99.90
14749;DHT22;7466;53.574;9.976;2023-04-01T04:24:02;9.60;99.90
14749;DHT22;7466;53.574;9.976;2023-04-01T04:26:29;9.60;99.90
14749;DHT22;7466;53.574;9.976;2023-04-01T04:28:59;9.60;99.90
14749;DHT22;7466;53.574;9.976;2023-04-01T04:31:26;9.60;99.90
14749;DHT22;7466;53.574;9.976;2023-04-01T04:33:53;9.60;99.90
14749;DHT22;7466;53.574;9.976;2023-04-01T04:36:20;9.60;99.90
14749;DHT22;7466;53.574;9.976;2023-04-01T04:38:49;9.60;99.90
14749;DHT22;7466;53.574;9.976;2023-04-01T04:41:18;9.50;99.90
14749;DHT22;7466;53.574;9.976;2023-04-01T04:43:51;9.60;99.90
14749;DHT22;7466;53.574;9.976;2023-04-01T04:46:19;9.60;99.90
14749;DHT22;7466;53.574;9.976;2023-04-01T04:48:46;9.60;99.90
14749;DHT22;7466;53.574;9.976;2023-04-01T04:51:14;9.60;99.90
14749;DHT22;7466;53.574;9.976;2023-04-01T04:53:41;9.60;99.90
14749;DHT22;7466;53.574;9.976;2023-04-01T04:56:08;9.60;99.90
14749;DHT22;7466;53.574;9.976;2023-04-01T04:58:37;9.60;99.90
14749;DHT22;7466;53.574;9.976;2023-04-01T05:01:09;9.60;99.90
14749;DHT22;7466;53.574;9.976;2023-04-01T05:03:36;9.50;99.90
14749;DHT22;7466;53.574;9.976;2023-04-01T05:06:04;9.60;99.90
14749;DHT22;7466;53.574;9.976;2023-04-01T05:08:31;9.60;99.90
14749;DHT22;7466;53.574;9.976;2023-04-01T05:10:58;9.50;99.90
14749;DHT22;7466;53.574;9.976;2023-04-01T05:13:25;9.50;99.90
14749;DHT22;7466;53.574;9.976;2023-04-01T05:15:53;9.50;99.90
14749;DHT22;7466;53.574;9.976;2023-04-01T05:18:21;9.60;99.90
14749;DHT22;7466;53.574;9.976;2023-04-01T05:20:48;9.60;99.90
14749;DHT22;7466;53.574;9.976;2023-04-01T05:23:16;9.60;99.90
14749;DHT22;7466;53.574;9.976;2023-04-01T05:25:43;9.60;99.90
14749;DHT22;7466;53.574;9.976;2023-04-01T05:28:10;9.60;99.90
14749;DHT22;7466;53.574;9.976;2023-04-01T05:30:39;9.60;99.90
14749;DHT22;7466;53.574;9.976;2023-04-01T05:33:08;9.50;99.90
14749;DHT22;7466;53.574;9.976;2023-04-01T05:35:35;9.20;99.90
14749;DHT22;7466;53.574;9.976;2023-04-01T05:38:03;9.00;99.90
14749;DHT22;7466;53.574;9.976;2023-04-01T05:40:30;8.80;99.90
14749;DHT22;7466;53.574;9.976;2023-04-01T05:42:58;8.60;99.90
14749;DHT22;7466;53.574;9.976;2023-04-01T05:45:25;8.50;99.90
14749;DHT22;7466;53.574;9.976;2023-04-01T05:47:52;8.40;99.90
14749;DHT22;7466;53.574;9.976;2023-04-01T05:50:20;8.30;99.90
14749;DHT22;7466;53.574;9.976;2023-04-01T05:52:47;8.20;99.90
14749;DHT22;7466;53.574;9.976;2023-04-01T05:55:14;8.10;99.90
14749;DHT22;7466;53.574;9.976;2023-04-01T05:57:44;8.00;99.90
14749;DHT22;7466;53.574;9.976;2023-04-01T06:00:12;7.90;99.90
14749;DHT22;7466;53.574;9.976;2023-04-01T06:02:40;7.80;99.90
14749;DHT22;7466;53.574;9.976;2023-04-01T06:05:14;7.70;99.90
14749;DHT22;7466;53.574;9.976;2023-04-01T06:07:43;7.70;99.90
14749;DHT22;7466;53.574;9.976;2023-04-01T06:10:13;7.60;99.90
14749;DHT22;7466;53.574;9.976;2023-04-01T06:12:45;7.70;99.90
14749;DHT22;7466;53.574;9.976;2023-04-01T06:15:20;7.60;99.90
14749;DHT22;7466;53.574;9.976;2023-04-01T06:18:02;7.60;99.90
14749;DHT22;7466;53.574;9.976;2023-04-01T06:20:39;7.60;99.90
14749;DHT22;7466;53.574;9.976;2023-04-01T06:23:29;7.50;99.90
14749;DHT22;7466;53.574;9.976;2023-04-01T06:26:12;7.40;99.90
14749;DHT22;7466;53.574;9.976;2023-04-01T06:28:55;7.40;99.90
14749;DHT22;7466;53.574;9.976;2023-04-01T06:31:36;7.40;99.90
14749;DHT22;7466;53.574;9.976;2023-04-01T06:34:28;7.30;99.90
14749;DHT22;7466;53.574;9.976;2023-04-01T06:37:15;7.30;99.90
14749;DHT22;7466;53.574;9.976;2023-04-01T06:40:21;7.30;99.90
14749;DHT22;7466;53.574;9.976;2023-04-01T06:43:02;7.30;99.90
14749;DHT22;7466;53.574;9.976;2023-04-01T06:45:36;7.40;99.90
14749;DHT22;7466;53.574;9.976;2023-04-01T06:48:18;7.30;99.90
14749;DHT22;7466;53.574;9.976;2023-04-01T06:50:53;7.20;99.90
14749;DHT22;7466;53.574;9.976;2023-04-01T06:53:25;7.00;99.90
14749;DHT22;7466;53.574;9.976;2023-04-01T06:56:01;7.10;99.90
14749;DHT22;7466;53.574;9.976;2023-04-01T06:58:33;7.10;99.90
14749;DHT22;7466;53.574;9.976;2023-04-01T07:01:03;7.20;99.90
14749;DHT22;7466;53.574;9.976;2023-04-01T07:03:34;7.20;99.90
14749;DHT22;7466;53.574;9.976;2023-04-01T07:06:04;7.00;99.90
14749;DHT22;7466;53.574;9.976;2023-04-01T07:08:35;7.00;99.90
14749;DHT22;7466;53.574;9.976;2023-04-01T07:11:05;7.00;99.90
14749;DHT22;7466;53.574;9.976;2023-04-01T07:13:36;7.00;99.90
14749;DHT22;7466;53.574;9.976;2023-04-01T07:16:12;7.00;99.90
14749;DHT22;7466;53.574;9.976;2023-04-01T07:18:44;7.00;99.90
14749;DHT22;7466;53.574;9.976;2023-04-01T07:21:22;7.00;99.90
14749;DHT22;7466;53.574;9.976;2023-04-01T07:23:51;6.90;99.90
14749;DHT22;7466;53.574;9.976;2023-04-01T07:26:23;6.90;99.90
14749;DHT22;7466;53.574;9.976;2023-04-01T07:28:52;6.80;99.90
14749;DHT22;7466;53.574;9.976;2023-04-01T07:31:27;6.80;99.90
14749;DHT22;7466;53.574;9.976;2023-04-01T07:34:03;6.80;99.90
14749;DHT22;7466;53.574;9.976;2023-04-01T07:36:40;6.70;99.90
14749;DHT22;7466;53.574;9.976;2023-04-01T07:39:15;6.70;99.90
14749;DHT22;7466;53.574;9.976;2023-04-01T07:41:51;6.80;99.90
14749;DHT22;7466;53.574;9.976;2023-04-01T07:44:27;6.80;99.90
14749;DHT22;7466;53.574;9.976;2023-04-01T07:47:10;6.70;99.90
14749;DHT22;7466;53.574;9.976;2023-04-01T07:49:49;6.80;99.90
14749;DHT22;7466;53.574;9.976;2023-04-01T07:52:32;6.70;99.90
14749;DHT22;7466;53.574;9.976;2023-04-01T07:55:06;6.70;99.90
14749;DHT22;7466;53.574;9.976;2023-04-01T07:57:45;6.70;99.90
14749;DHT22;7466;53.574;9.976;2023-04-01T08:00:19;6.80;99.90
14749;DHT22;7466;53.574;9.976;2023-04-01T08:03:06;6.70;99.90
14749;DHT22;7466;53.574;9.976;2023-04-01T08:05:44;6.70;99.90
14749;DHT22;7466;53.574;9.976;2023-04-01T08:08:18;6.70;99.90
14749;DHT22;7466;53.574;9.976;2023-04-01T08:10:49;6.60;99.90
14749;DHT22;7466;53.574;9.976;2023-04-01T08:13:26;6.50;99.90
14749;DHT22;7466;53.574;9.976;2023-04-01T08:16:06;6.60;99.90
14749;DHT22;7466;53.574;9.976;2023-04-01T08:18:40;6.60;99.90
14749;DHT22;7466;53.574;9.976;2023-04-01T08:21:13;6.60;99.90
14749;DHT22;7466;53.574;9.976;2023-04-01T08:23:43;6.50;99.90
14749;DHT22;7466;53.574;9.976;2023-04-01T08:26:14;6.50;99.90
14749;DHT22;7466;53.574;9.976;2023-04-01T08:28:51;6.50;99.90
14749;DHT22;7466;53.574;9.976;2023-04-01T08:31:22;6.60;99.90
14749;DHT22;7466;53.574;9.976;2023-04-01T08:33:53;6.60;99.90
14749;DHT22;7466;53.574;9.976;2023-04-01T08:36:24;6.60;99.90
14749;DHT22;7466;53.574;9.976;2023-04-01T08:38:55;6.60;99.90
14749;DHT22;7466;53.574;9.976;2023-04-01T08:41:53;6.60;99.90
14749;DHT22;7466;53.574;9.976;2023-04-01T08:45:09;6.60;99.90
14749;DHT22;7466;53.574;9.976;2023-04-01T08:47:52;6.70;99.90
14749;DHT22;7466;53.574;9.976;2023-04-01T08:50:36;6.70;99.90
14749;DHT22;7466;53.574;9.976;2023-04-01T08:53:10;6.70;99.90
14749;DHT22;7466;53.574;9.976;2023-04-01T08:55:51;6.80;99.90
14749;DHT22;7466;53.574;9.976;2023-04-01T08:58:42;6.80;99.90
14749;DHT22;7466;53.574;9.976;2023-04-01T09:01:25;6.60;99.90
14749;DHT22;7466;53.574;9.976;2023-04-01T09:04:14;6.70;99.90
14749;DHT22;7466;53.574;9.976;2023-04-01T09:06:55;6.70;99.90
14749;DHT22;7466;53.574;9.976;2023-04-01T09:09:44;6.70;99.90
14749;DHT22;7466;53.574;9.976;2023-04-01T09:12:34;6.70;99.90
14749;DHT22;7466;53.574;9.976;2023-04-01T09:15:30;6.70;99.90
14749;DHT22;7466;53.574;9.976;2023-04-01T09:18:30;6.80;99.90
14749;DHT22;7466;53.574;9.976;2023-04-01T09:21:44;6.70;99.90
14749;DHT22;7466;53.574;9.976;2023-04-01T09:24:45;6.70;99.90
14749;DHT22;7466;53.574;9.976;2023-04-01T09:27:24;6.70;99.90
14749;DHT22;7466;53.574;9.976;2023-04-01T09:30:13;6.80;99.90
14749;DHT22;7466;53.574;9.976;2023-04-01T09:33:16;6.70;99.90
14749;DHT22;7466;53.574;9.976;2023-04-01T09:36:02;6.80;99.90
14749;DHT22;7466;53.574;9.976;2023-04-01T09:38:36;6.90;99.90
14749;DHT22;7466;53.574;9.976;2023-04-01T09:41:13;6.90;99.90
14749;DHT22;7466;53.574;9.976;2023-04-01T09:43:58;7.10;99.90
14749;DHT22;7466;53.574;9.976;2023-04-01T09:46:40;7.10;99.90
14749;DHT22;7466;53.574;9.976;2023-04-01T09:49:43;7.20;99.90
14749;DHT22;7466;53.574;9.976;2023-04-01T09:52:24;7.50;99.90
14749;DHT22;7466;53.574;9.976;2023-04-01T09:55:01;7.40;99.90
14749;DHT22;7466;53.574;9.976;2023-04-01T09:57:54;7.40;99.90
14749;DHT22;7466;53.574;9.976;2023-04-01T10:00:55;7.20;99.90
14749;DHT22;7466;53.574;9.976;2023-04-01T10:04:09;7.20;99.90
14749;DHT22;7466;53.574;9.976;2023-04-01T10:07:01;7.20;99.90
14749;DHT22;7466;53.574;9.976;2023-04-01T10:10:04;7.30;99.90
14749;DHT22;7466;53.574;9.976;2023-04-01T10:13:13;7.10;99.90
14749;DHT22;7466;53.574;9.976;2023-04-01T10:16:01;7.10;99.90
14749;DHT22;7466;53.574;9.976;2023-04-01T10:18:47;7.30;99.90
14749;DHT22;7466;53.574;9.976;2023-04-01T10:21:45;7.30;99.90
14749;DHT22;7466;53.574;9.976;2023-04-01T10:24:33;7.20;99.90
14749;DHT22;7466;53.574;9.976;2023-04-01T10:27:29;7.00;99.90
14749;DHT22;7466;53.574;9.976;2023-04-01T10:33:20;7.10;99.90
14749;DHT22;7466;53.574;9.976;2023-04-01T10:36:24;7.00;99.90
14749;DHT22;7466;53.574;9.976;2023-04-01T10:42:37;7.00;99.90
14749;DHT22;7466;53.574;9.976;2023-04-01T10:49:01;7.10;99.90
14749;DHT22;7466;53.574;9.976;2023-04-01T10:52:02;7.20;99.90
14749;DHT22;7466;53.574;9.976;2023-04-01T10:54:49;7.00;99.90
14749;DHT22;7466;53.574;9.976;2023-04-01T10:57:46;7.00;99.90
14749;DHT22;7466;53.574;9.976;2023-04-01T11:03:46;7.00;99.90
14749;DHT22;7466;53.574;9.976;2023-04-01T11:06:57;7.10;99.90
14749;DHT22;7466;53.574;9.976;2023-04-01T11:10:30;7.30;99.90
14749;DHT22;7466;53.574;9.976;2023-04-01T11:13:43;7.30;99.90
14749;DHT22;7466;53.574;9.976;2023-04-01T11:16:42;7.10;99.90
14749;DHT22;7466;53.574;9.976;2023-04-01T11:19:42;7.00;99.90
14749;DHT22;7466;53.574;9.976;2023-04-01T11:22:50;7.00;99.90
14749;DHT22;7466;53.574;9.976;2023-04-01T11:31:28;7.00;99.90
14749;DHT22;7466;53.574;9.976;2023-04-01T11:34:02;7.00;99.90
14749;DHT22;7466;53.574;9.976;2023-04-01T11:36:51;7.10;99.90
14749;DHT22;7466;53.574;9.976;2023-04-01T11:39:32;7.00;99.90
14749;DHT22;7466;53.574;9.976;2023-04-01T11:42:09;7.00;99.90
14749;DHT22;7466;53.574;9.976;2023-04-01T11:44:45;6.90;99.90
14749;DHT22;7466;53.574;9.976;2023-04-01T11:47:28;6.90;99.90
14749;DHT22;7466;53.574;9.976;2023-04-01T11:50:10;6.80;99.90
14749;DHT22;7466;53.574;9.976;2023-04-01T11:55:51;6.60;99.90
14749;DHT22;7466;53.574;9.976;2023-04-01T12:01:33;6.70;99.90
14749;DHT22;7466;53.574;9.976;2023-04-01T12:04:31;6.60;99.90
14749;DHT22;7466;53.574;9.976;2023-04-01T12:07:12;6.60;99.90
14749;DHT22;7466;53.574;9.976;2023-04-01T12:10:02;6.70;99.90
14749;DHT22;7466;53.574;9.976;2023-04-01T12:12:38;6.70;99.90
14749;DHT22;7466;53.574;9.976;2023-04-01T12:15:19;6.60;99.90
14749;DHT22;7466;53.574;9.976;2023-04-01T12:18:02;6.50;99.90
14749;DHT22;7466;53.574;9.976;2023-04-01T12:20:54;6.40;99.90
14749;DHT22;7466;53.574;9.976;2023-04-01T12:23:42;6.40;99.90
14749;DHT22;7466;53.574;9.976;2023-04-01T12:26:41;6.40;99.90
14749;DHT22;7466;53.574;9.976;2023-04-01T12:29:38;6.30;99.90
14749;DHT22;7466;53.574;9.976;2023-04-01T12:32:19;6.30;99.90
14749;DHT22;7466;53.574;9.976;2023-04-01T12:34:58;6.30;99.90
14749;DHT22;7466;53.574;9.976;2023-04-01T12:37:35;6.30;99.90
14749;DHT22;7466;53.574;9.976;2023-04-01T12:40:40;6.30;99.90
14749;DHT22;7466;53.574;9.976;2023-04-01T12:46:25;6.40;99.90
14749;DHT22;7466;53.574;9.976;2023-04-01T12:49:16;6.40;99.90
14749;DHT22;7466;53.574;9.976;2023-04-01T12:52:01;6.40;99.90
14749;DHT22;7466;53.574;9.976;2023-04-01T12:54:55;6.40;99.90
14749;DHT22;7466;53.574;9.976;2023-04-01T13:01:02;6.30;99.90
14749;DHT22;7466;53.574;9.976;2023-04-01T13:03:54;6.30;99.90
14749;DHT22;7466;53.574;9.976;2023-04-01T13:06:43;6.30;99.90
14749;DHT22;7466;53.574;9.976;2023-04-01T13:09:22;6.30;99.90
14749;DHT22;7466;53.574;9.976;2023-04-01T13:12:15;6.20;99.90
14749;DHT22;7466;53.574;9.976;2023-04-01T13:17:59;6.30;99.90
14749;DHT22;7466;53.574;9.976;2023-04-01T13:20:44;6.10;99.90
14749;DHT22;7466;53.574;9.976;2023-04-01T13:23:24;6.10;99.90
14749;DHT22;7466;53.574;9.976;2023-04-01T13:26:01;6.10;99.90
14749;DHT22;7466;53.574;9.976;2023-04-01T13:28:39;6.20;99.90
14749;DHT22;7466;53.574;9.976;2023-04-01T13:31:11;6.10;99.90
14749;DHT22;7466;53.574;9.976;2023-04-01T13:33:46;6.20;99.90
14749;DHT22;7466;53.574;9.976;2023-04-01T13:36:22;6.10;99.90
14749;DHT22;7466;53.574;9.976;2023-04-01T13:39:08;6.10;99.90
14749;DHT22;7466;53.574;9.976;2023-04-01T13:41:51;6.10;99.90
14749;DHT22;7466;53.574;9.976;2023-04-01T13:44:30;6.00;99.90
14749;DHT22;7466;53.574;9.976;2023-04-01T13:47:38;6.00;99.90
14749;DHT22;7466;53.574;9.976;2023-04-01T13:50:20;6.10;99.90
14749;DHT22;7466;53.574;9.976;2023-04-01T13:53:02;6.20;99.90
14749;DHT22;7466;53.574;9.976;2023-04-01T13:55:39;6.20;99.90
14749;DHT22;7466;53.574;9.976;2023-04-01T13:58:29;6.10;99.90
14749;DHT22;7466;53.574;9.976;2023-04-01T14:01:10;6.10;99.90
14749;DHT22;7466;53.574;9.976;2023-04-01T14:03:52;6.10;99.90
14749;DHT22;7466;53.574;9.976;2023-04-01T14:06:31;5.90;99.90
14749;DHT22;7466;53.574;9.976;2023-04-01T14:09:23;5.90;99.90
14749;DHT22;7466;53.574;9.976;2023-04-01T14:11:59;6.00;99.90
14749;DHT22;7466;53.574;9.976;2023-04-01T14:14:43;6.00;99.90
14749;DHT22;7466;53.574;9.976;2023-04-01T14:17:39;6.00;99.90
14749;DHT22;7466;53.574;9.976;2023-04-01T14:20:25;6.00;99.90
14749;DHT22;7466;53.574;9.976;2023-04-01T14:23:09;6.00;99.90
14749;DHT22;7466;53.574;9.976;2023-04-01T14:28:38;6.00;99.90
14749;DHT22;7466;53.574;9.976;2023-04-01T14:31:34;6.10;99.90
14749;DHT22;7466;53.574;9.976;2023-04-01T14:34:18;6.10;99.90
14749;DHT22;7466;53.574;9.976;2023-04-01T14:36:57;6.20;99.90
14749;DHT22;7466;53.574;9.976;2023-04-01T14:39:38;6.20;99.90
14749;DHT22;7466;53.574;9.976;2023-04-01T14:42:35;6.10;99.90
14749;DHT22;7466;53.574;9.976;2023-04-01T14:48:23;6.00;99.90
14749;DHT22;7466;53.574;9.976;2023-04-01T14:50:55;6.00;99.90
14749;DHT22;7466;53.574;9.976;2023-04-01T14:53:28;6.00;99.90
14749;DHT22;7466;53.574;9.976;2023-04-01T14:55:57;6.00;99.90
14749;DHT22;7466;53.574;9.976;2023-04-01T14:58:43;6.00;99.90
14749;DHT22;7466;53.574;9.976;2023-04-01T15:01:34;6.10;99.90
14749;DHT22;7466;53.574;9.976;2023-04-01T15:04:31;6.10;99.90
14749;DHT22;7466;53.574;9.976;2023-04-01T15:07:11;6.10;99.90
14749;DHT22;7466;53.574;9.976;2023-04-01T15:09:48;5.90;99.90
14749;DHT22;7466;53.574;9.976;2023-04-01T15:12:26;5.80;99.90
14749;DHT22;7466;53.574;9.976;2023-04-01T15:15:14;5.90;99.90
14749;DHT22;7466;53.574;9.976;2023-04-01T15:17:53;5.90;99.90
14749;DHT22;7466;53.574;9.976;2023-04-01T15:20:44;5.80;99.90
14749;DHT22;7466;53.574;9.976;2023-04-01T15:23:25;5.80;99.90
14749;DHT22;7466;53.574;9.976;2023-04-01T15:26:24;5.70;99.90
14749;DHT22;7466;53.574;9.976;2023-04-01T15:29:11;5.80;99.90
14749;DHT22;7466;53.574;9.976;2023-04-01T15:31:46;5.70;99.90
14749;DHT22;7466;53.574;9.976;2023-04-01T15:34:24;5.70;99.90
14749;DHT22;7466;53.574;9.976;2023-04-01T15:36:57;5.60;99.90
14749;DHT22;7466;53.574;9.976;2023-04-01T15:39:41;5.60;99.90
14749;DHT22;7466;53.574;9.976;2023-04-01T15:42:23;5.50;99.90
14749;DHT22;7466;53.574;9.976;2023-04-01T15:45:05;5.60;99.90
14749;DHT22;7466;53.574;9.976;2023-04-01T15:47:37;5.40;99.90
14749;DHT22;7466;53.574;9.976;2023-04-01T15:50:31;5.40;99.90
14749;DHT22;7466;53.574;9.976;2023-04-01T15:53:13;5.40;99.90
14749;DHT22;7466;53.574;9.976;2023-04-01T15:55:48;5.30;99.90
14749;DHT22;7466;53.574;9.976;2023-04-01T15:58:35;5.40;99.90
14749;DHT22;7466;53.574;9.976;2023-04-01T16:01:15;5.30;99.90
14749;DHT22;7466;53.574;9.976;2023-04-01T16:03:51;5.30;99.90
14749;DHT22;7466;53.574;9.976;2023-04-01T16:09:26;5.30;99.90
14749;DHT22;7466;53.574;9.976;2023-04-01T16:12:06;5.30;99.90
14749;DHT22;7466;53.574;9.976;2023-04-01T16:14:41;5.30;99.90
14749;DHT22;7466;53.574;9.976;2023-04-01T16:17:31;5.20;99.90
14749;DHT22;7466;53.574;9.976;2023-04-01T16:20:13;5.20;99.90
14749;DHT22;7466;53.574;9.976;2023-04-01T16:22:49;5.30;99.90
14749;DHT22;7466;53.574;9.976;2023-04-01T16:25:26;5.20;99.90
14749;DHT22;7466;53.574;9.976;2023-04-01T16:28:11;5.10;99.90
14749;DHT22;7466;53.574;9.976;2023-04-01T16:30:46;5.10;99.90
14749;DHT22;7466;53.574;9.976;2023-04-01T16:33:19;5.20;99.90
14749;DHT22;7466;53.574;9.976;2023-04-01T16:35:54;5.10;99.90
14749;DHT22;7466;53.574;9.976;2023-04-01T16:38:25;5.10;99.90
14749;DHT22;7466;53.574;9.976;2023-04-01T16:41:05;5.10;99.90
14749;DHT22;7466;53.574;9.976;2023-04-01T16:43:41;5.00;99.90
14749;DHT22;7466;53.574;9.976;2023-04-01T16:46:21;5.10;99.90
14749;DHT22;7466;53.574;9.976;2023-04-01T16:48:59;5.00;99.90
14749;DHT22;7466;53.574;9.976;2023-04-01T16:51:34;5.00;99.90
14749;DHT22;7466;53.574;9.976;2023-04-01T16:54:05;5.00;99.90
14749;DHT22;7466;53.574;9.976;2023-04-01T16:56:40;5.00;99.90
14749;DHT22;7466;53.574;9.976;2023-04-01T16:59:19;4.90;99.90
14749;DHT22;7466;53.574;9.976;2023-04-01T17:01:52;4.80;99.90
14749;DHT22;7466;53.574;9.976;2023-04-01T17:04:29;4.80;99.90
14749;DHT22;7466;53.574;9.976;2023-04-01T17:07:05;4.80;99.90
14749;DHT22;7466;53.574;9.976;2023-04-01T17:09:46;4.80;99.90
14749;DHT22;7466;53.574;9.976;2023-04-01T17:12:20;4.80;99.90
14749;DHT22;7466;53.574;9.976;2023-04-01T17:14:57;4.70;99.90
14749;DHT22;7466;53.574;9.976;2023-04-01T17:17:34;4.70;99.90
14749;DHT22;7466;53.574;9.976;2023-04-01T17:20:13;4.70;99.90
14749;DHT22;7466;53.574;9.976;2023-04-01T17:22:49;4.60;99.90
14749;DHT22;7466;53.574;9.976;2023-04-01T17:25:41;4.60;99.90
14749;DHT22;7466;53.574;9.976;2023-04-01T17:28:19;4.60;99.90
14749;DHT22;7466;53.574;9.976;2023-04-01T17:30:58;4.60;99.90
14749;DHT22;7466;53.574;9.976;2023-04-01T17:33:44;4.60;99.90
14749;DHT22;7466;53.574;9.976;2023-04-01T17:36:28;4.60;99.90
14749;DHT22;7466;53.574;9.976;2023-04-01T17:42:05;4.60;99.90
14749;DHT22;7466;53.574;9.976;2023-04-01T17:44:47;4.60;99.90
14749;DHT22;7466;53.574;9.976;2023-04-01T17:47:31;4.60;99.90
14749;DHT22;7466;53.574;9.976;2023-04-01T17:50:09;4.60;99.90
14749;DHT22;7466;53.574;9.976;2023-04-01T17:52:44;4.60;99.90
14749;DHT22;7466;53.574;9.976;2023-04-01T17:55:44;4.60;99.90
14749;DHT22;7466;53.574;9.976;2023-04-01T17:58:18;4.60;99.90